Have a Safe July 4th! 

Flight Track Log - Related Links

Times and Time Zones

All times are in EDT time to prevent confusion due to time zone crossing. See the SKW7363 flight status page for this flight to view local times or setup timezone preferences in your user account.

Time Position Orientation Groundspeed Altitude Reporting Facility
EDT Latitude Longitude Course Direction KTS MPH feet Rate Location/Type
Sun 08:11:21 PM 40.8153 -112.0019 355° North 182 209 5,100  Level Salt Lake Center
Sun 08:12:33 PM 40.8881 -112.0111 355° North 234 269 6,800 1,421 Climbing Salt Lake Center
Sun 08:13:15 PM 40.9256 -112.0139 357° North 250 288 7,800 2,250 Climbing Salt Lake Center
Sun 08:14:17 PM 41.0158 -112.0178 358° North 269 310 10,700 2,323 Climbing Salt Lake Center
Sun 08:15:19 PM 41.0903 -112.0019 North 277 319 12,600 1,839 Climbing Salt Lake Center
Sun 08:16:21 PM 41.1458 -111.9258 46° Northeast 285 328 14,500 1,839 Climbing Salt Lake Center
Sun 08:17:23 PM 41.2036 -111.8464 46° Northeast 295 339 16,400 1,756 Climbing Salt Lake Center
Sun 08:18:24 PM 41.2761 -111.7892 31° Northeast 302 348 18,100 1,561 Climbing Salt Lake Center
Sun 08:19:26 PM 41.3525 -111.7333 29° Northeast 309 356 19,600 1,403 Climbing Salt Lake Center
Sun 08:20:28 PM 41.4372 -111.6914 20° North 325 374 21,000 1,355 Climbing Salt Lake Center
Sun 08:21:30 PM 41.5264 -111.6550 17° North 336 387 22,400 1,306 Climbing Salt Lake Center
Sun 08:22:32 PM 41.6167 -111.6200 16° North 340 391 23,700 1,355 Climbing Salt Lake Center
Sun 08:23:34 PM 41.7267 -111.5756 17° North 346 398 25,200 1,366 Climbing Salt Lake Center
Sun 08:24:35 PM 41.8214 -111.5403 16° North 353 406 26,500 878 Climbing Salt Lake Center
Sun 08:25:37 PM 41.9189 -111.5208 North 355 409 27,000 242 Climbing Salt Lake Center
Sun 08:26:39 PM 42.0247 -111.4967 10° North 384 442 27,000  Level Salt Lake Center
Sun 08:27:41 PM 42.1106 -111.4133 36° Northeast 394 453 27,000  Level Salt Lake Center
Sun 08:28:43 PM 42.1775 -111.3039 50° Northeast 378 435 27,000  Level Salt Lake Center
Sun 08:29:44 PM 42.2608 -111.2294 33° Northeast 359 413 27,000  Level Salt Lake Center
Sun 08:30:46 PM 42.3603 -111.1397 34° Northeast 358 412 27,000  Level Salt Lake Center
Sun 08:31:48 PM 42.4417 -111.0636 35° Northeast 357 411 27,000  Level Salt Lake Center
Sun 08:32:50 PM 42.5236 -110.9886 34° Northeast 356 410 27,000  Level Salt Lake Center
Sun 08:33:52 PM 42.6114 -110.9086 34° Northeast 357 411 27,000  Level Salt Lake Center
Sun 08:34:53 PM 42.6903 -110.8358 34° Northeast 357 411 27,000  Level Salt Lake Center
Sun 08:35:55 PM 42.7792 -110.7514 35° Northeast 362 417 27,000  Level Salt Lake Center
Sun 08:36:57 PM 42.8583 -110.6778 34° Northeast 360 414 27,000  Level Salt Lake Center
Sun 08:37:59 PM 42.9486 -110.5928 35° Northeast 356 410 27,000  Level Salt Lake Center
Sun 08:39:01 PM 43.0258 -110.5225 34° Northeast 350 403 27,000  Level Salt Lake Center
Sun 08:40:03 PM 43.1175 -110.4353 35° Northeast 358 412 27,000  Level Salt Lake Center
Sun 08:41:04 PM 43.1950 -110.3622 34° Northeast 355 409 27,000  Level Salt Lake Center
Sun 08:42:06 PM 43.2794 -110.2800 35° Northeast 366 421 27,000  Level Salt Lake Center
Sun 08:43:08 PM 43.3722 -110.1892 35° Northeast 365 420 27,000  Level Salt Lake Center
Sun 08:44:10 PM 43.4506 -110.1147 35° Northeast 359 413 27,000  Level Salt Lake Center
Sun 08:45:12 PM 43.5358 -110.0319 35° Northeast 356 410 27,000  Level Salt Lake Center
Sun 08:46:13 PM 43.6283 -109.9447 34° Northeast 360 414 27,000  Level Salt Lake Center
Sun 08:47:15 PM 43.7053 -109.8708 35° Northeast 356 410 27,000 -1,306 Level Salt Lake Center
Sun 08:48:17 PM 43.7839 -109.7947 35° Northeast 360 414 24,300 -2,758 Descending Salt Lake Center
Sun 08:49:19 PM 43.8844 -109.6958 35° Northeast 389 448 21,300 -2,390 Descending Salt Lake Center
Sun 08:50:20 PM 43.9633 -109.6186 35° Northeast 377 434 19,400 -2,244 Descending Salt Lake Center
Sun 08:51:22 PM 44.0553 -109.5308 34° Northeast 357 411 16,700 -2,129 Descending Salt Lake Center
Sun 08:52:24 PM 44.1322 -109.4564 35° Northeast 357 411 15,000 -823 Descending Salt Lake Center
Sun 08:53:26 PM 44.2006 -109.3889 35° Northeast 315 362 15,000  Level Salt Lake Center
Sun 08:54:27 PM 44.2619 -109.3281 35° Northeast 280 322 15,000  Level Salt Lake Center
Sun 08:55:29 PM 44.3350 -109.2547 36° Northeast 272 313 15,000 -484 Level Salt Lake Center
Sun 08:56:31 PM 44.3958 -109.1936 36° Northeast 270 311 14,000 -1,073 Descending Salt Lake Center
Sun 08:57:32 PM 44.4553 -109.1344 35° Northeast 266 306 12,800 -1,463 Descending Salt Lake Center
Sun 08:58:34 PM 44.4919 -109.0428 61° Northeast 280 322 11,000 -1,258 Descending Salt Lake Center
Sun 08:59:36 PM 44.5117 -108.9503 73° East 263 303 10,200 -1,161 Descending Salt Lake Center
Sun 09:00:38 PM 44.5358 -108.8689 67° East 244 281 8,600 -1,258 Descending Salt Lake Center
Sun 09:01:40 PM 44.5819 -108.8606 North 217 250 7,600 -976 Descending Salt Lake Center
Sun 09:02:41 PM 44.5742 -108.9333 261° West 189 217 6,600 -927 Descending Salt Lake Center
Sun 09:03:43 PM 44.5447 -108.9814 229° Southwest 175 201 5,700 -871 Descending Salt Lake Center
Sun 09:05:00 PM 44.5167 -109.0167 261° West  Level FlightAware Approximate

Login

Don't have an account? Register now (free) for customized features, flight alerts, and more!